sensor_id;sensor_type;location;lat;lon;timestamp;temperature;humidity
16785;DHT22;8509;52.178;5.404;2024-02-26T00:00:09;5.90;99.90
16785;DHT22;8509;52.178;5.404;2024-02-26T00:02:36;5.90;99.90
16785;DHT22;8509;52.178;5.404;2024-02-26T00:05:07;5.80;99.90
16785;DHT22;8509;52.178;5.404;2024-02-26T00:07:33;5.80;99.90
16785;DHT22;8509;52.178;5.404;2024-02-26T00:10:06;5.80;99.90
16785;DHT22;8509;52.178;5.404;2024-02-26T00:12:35;5.80;99.90
16785;DHT22;8509;52.178;5.404;2024-02-26T00:15:01;5.80;99.90
16785;DHT22;8509;52.178;5.404;2024-02-26T00:17:30;5.70;99.90
16785;DHT22;8509;52.178;5.404;2024-02-26T00:19:56;5.70;99.90
16785;DHT22;8509;52.178;5.404;2024-02-26T00:22:22;5.60;99.90
16785;DHT22;8509;52.178;5.404;2024-02-26T00:24:48;5.60;99.90
16785;DHT22;8509;52.178;5.404;2024-02-26T00:27:14;5.70;99.90
16785;DHT22;8509;52.178;5.404;2024-02-26T00:29:40;5.60;99.90
16785;DHT22;8509;52.178;5.404;2024-02-26T00:32:06;5.60;99.90
16785;DHT22;8509;52.178;5.404;2024-02-26T00:34:32;5.60;99.90
16785;DHT22;8509;52.178;5.404;2024-02-26T00:36:57;5.50;99.90
16785;DHT22;8509;52.178;5.404;2024-02-26T00:39:23;5.50;99.90
16785;DHT22;8509;52.178;5.404;2024-02-26T00:41:49;5.50;99.90
16785;DHT22;8509;52.178;5.404;2024-02-26T00:44:17;5.50;99.90
16785;DHT22;8509;52.178;5.404;2024-02-26T00:46:44;5.50;99.90
16785;DHT22;8509;52.178;5.404;2024-02-26T00:49:10;5.50;99.90
16785;DHT22;8509;52.178;5.404;2024-02-26T00:51:36;5.40;99.90
16785;DHT22;8509;52.178;5.404;2024-02-26T00:54:03;5.40;99.90
16785;DHT22;8509;52.178;5.404;2024-02-26T00:56:29;5.40;99.90
16785;DHT22;8509;52.178;5.404;2024-02-26T00:58:55;5.40;99.90
16785;DHT22;8509;52.178;5.404;2024-02-26T01:01:21;5.30;99.90
16785;DHT22;8509;52.178;5.404;2024-02-26T01:03:47;5.30;99.90
16785;DHT22;8509;52.178;5.404;2024-02-26T01:06:13;5.30;99.90
16785;DHT22;8509;52.178;5.404;2024-02-26T01:08:39;5.40;99.90
16785;DHT22;8509;52.178;5.404;2024-02-26T01:11:05;5.30;99.90
16785;DHT22;8509;52.178;5.404;2024-02-26T01:13:31;5.30;99.90
16785;DHT22;8509;52.178;5.404;2024-02-26T01:15:57;5.20;99.90
16785;DHT22;8509;52.178;5.404;2024-02-26T01:18:26;5.10;99.90
16785;DHT22;8509;52.178;5.404;2024-02-26T01:20:56;5.40;99.90
16785;DHT22;8509;52.178;5.404;2024-02-26T01:23:22;5.20;99.90
16785;DHT22;8509;52.178;5.404;2024-02-26T01:25:48;5.20;99.90
16785;DHT22;8509;52.178;5.404;2024-02-26T01:28:16;5.10;99.90
16785;DHT22;8509;52.178;5.404;2024-02-26T01:30:41;5.20;99.90
16785;DHT22;8509;52.178;5.404;2024-02-26T01:33:07;5.10;99.90
16785;DHT22;8509;52.178;5.404;2024-02-26T01:35:33;5.20;99.90
16785;DHT22;8509;52.178;5.404;2024-02-26T01:38:01;5.30;99.90
16785;DHT22;8509;52.178;5.404;2024-02-26T01:40:27;5.20;99.90
16785;DHT22;8509;52.178;5.404;2024-02-26T01:42:54;5.10;99.90
16785;DHT22;8509;52.178;5.404;2024-02-26T01:45:20;5.20;99.90
16785;DHT22;8509;52.178;5.404;2024-02-26T01:47:52;5.20;99.90
16785;DHT22;8509;52.178;5.404;2024-02-26T01:50:32;5.20;99.90
16785;DHT22;8509;52.178;5.404;2024-02-26T01:53:45;5.20;99.90
16785;DHT22;8509;52.178;5.404;2024-02-26T01:56:58;5.20;99.90
16785;DHT22;8509;52.178;5.404;2024-02-26T01:59:23;5.40;99.90
16785;DHT22;8509;52.178;5.404;2024-02-26T02:01:54;5.20;99.90
16785;DHT22;8509;52.178;5.404;2024-02-26T02:04:22;5.30;99.90
16785;DHT22;8509;52.178;5.404;2024-02-26T02:06:48;5.20;99.90
16785;DHT22;8509;52.178;5.404;2024-02-26T02:09:15;5.20;99.90
16785;DHT22;8509;52.178;5.404;2024-02-26T02:11:46;5.20;99.90
16785;DHT22;8509;52.178;5.404;2024-02-26T02:14:40;5.30;99.90
16785;DHT22;8509;52.178;5.404;2024-02-26T02:17:47;5.30;99.90
16785;DHT22;8509;52.178;5.404;2024-02-26T02:20:42;5.30;99.90
16785;DHT22;8509;52.178;5.404;2024-02-26T02:23:12;5.20;99.90
16785;DHT22;8509;52.178;5.404;2024-02-26T02:25:40;5.30;99.90
16785;DHT22;8509;52.178;5.404;2024-02-26T02:28:06;5.20;99.90
16785;DHT22;8509;52.178;5.404;2024-02-26T02:30:34;5.30;99.90
16785;DHT22;8509;52.178;5.404;2024-02-26T02:33:04;5.30;99.90
16785;DHT22;8509;52.178;5.404;2024-02-26T02:35:44;5.30;99.90
16785;DHT22;8509;52.178;5.404;2024-02-26T02:38:12;5.20;99.90
16785;DHT22;8509;52.178;5.404;2024-02-26T02:41:00;5.10;99.90
16785;DHT22;8509;52.178;5.404;2024-02-26T02:43:26;5.30;99.90
16785;DHT22;8509;52.178;5.404;2024-02-26T02:46:08;5.30;99.90
16785;DHT22;8509;52.178;5.404;2024-02-26T02:48:54;5.30;99.90
16785;DHT22;8509;52.178;5.404;2024-02-26T02:51:29;5.30;99.90
16785;DHT22;8509;52.178;5.404;2024-02-26T02:53:57;5.30;99.90
16785;DHT22;8509;52.178;5.404;2024-02-26T02:56:23;5.30;99.90
16785;DHT22;8509;52.178;5.404;2024-02-26T02:59:06;5.20;99.90
16785;DHT22;8509;52.178;5.404;2024-02-26T03:01:35;5.30;99.90
16785;DHT22;8509;52.178;5.404;2024-02-26T03:04:02;5.50;99.90
16785;DHT22;8509;52.178;5.404;2024-02-26T03:07:04;5.40;99.90
16785;DHT22;8509;52.178;5.404;2024-02-26T03:09:54;5.30;99.90
16785;DHT22;8509;52.178;5.404;2024-02-26T03:12:53;5.20;99.90
16785;DHT22;8509;52.178;5.404;2024-02-26T03:15:18;5.20;99.90
16785;DHT22;8509;52.178;5.404;2024-02-26T03:17:46;5.20;99.90
16785;DHT22;8509;52.178;5.404;2024-02-26T03:20:12;5.10;99.90
16785;DHT22;8509;52.178;5.404;2024-02-26T03:22:39;5.20;99.90
16785;DHT22;8509;52.178;5.404;2024-02-26T03:25:06;5.20;99.90
16785;DHT22;8509;52.178;5.404;2024-02-26T03:27:36;5.20;99.90
16785;DHT22;8509;52.178;5.404;2024-02-26T03:30:02;5.20;99.90
16785;DHT22;8509;52.178;5.404;2024-02-26T03:32:29;5.20;99.90
16785;DHT22;8509;52.178;5.404;2024-02-26T03:34:55;5.20;99.90
16785;DHT22;8509;52.178;5.404;2024-02-26T03:37:26;5.20;99.90
16785;DHT22;8509;52.178;5.404;2024-02-26T03:39:55;5.30;99.90
16785;DHT22;8509;52.178;5.404;2024-02-26T03:42:22;5.20;99.90
16785;DHT22;8509;52.178;5.404;2024-02-26T03:44:48;5.20;99.90
16785;DHT22;8509;52.178;5.404;2024-02-26T03:47:20;5.20;99.90
16785;DHT22;8509;52.178;5.404;2024-02-26T03:49:46;5.30;99.90
16785;DHT22;8509;52.178;5.404;2024-02-26T03:52:12;5.20;99.90
16785;DHT22;8509;52.178;5.404;2024-02-26T03:54:37;5.20;99.90
16785;DHT22;8509;52.178;5.404;2024-02-26T03:57:03;5.20;99.90
16785;DHT22;8509;52.178;5.404;2024-02-26T03:59:30;5.20;99.90
16785;DHT22;8509;52.178;5.404;2024-02-26T04:01:58;5.20;99.90
16785;DHT22;8509;52.178;5.404;2024-02-26T04:04:40;5.20;99.90
16785;DHT22;8509;52.178;5.404;2024-02-26T04:07:07;5.20;99.90
16785;DHT22;8509;52.178;5.404;2024-02-26T04:09:35;5.30;99.90
16785;DHT22;8509;52.178;5.404;2024-02-26T04:12:03;5.20;99.90
16785;DHT22;8509;52.178;5.404;2024-02-26T04:14:48;5.20;99.90
16785;DHT22;8509;52.178;5.404;2024-02-26T04:17:39;5.30;99.90
16785;DHT22;8509;52.178;5.404;2024-02-26T04:20:13;5.30;99.90
16785;DHT22;8509;52.178;5.404;2024-02-26T04:22:40;5.30;99.90
16785;DHT22;8509;52.178;5.404;2024-02-26T04:25:06;5.40;99.90
16785;DHT22;8509;52.178;5.404;2024-02-26T04:27:32;5.20;99.90
16785;DHT22;8509;52.178;5.404;2024-02-26T04:29:58;5.30;99.90
16785;DHT22;8509;52.178;5.404;2024-02-26T04:32:24;5.30;99.90
16785;DHT22;8509;52.178;5.404;2024-02-26T04:34:49;5.30;99.90
16785;DHT22;8509;52.178;5.404;2024-02-26T04:37:15;5.30;99.90
16785;DHT22;8509;52.178;5.404;2024-02-26T04:39:41;5.20;99.90
16785;DHT22;8509;52.178;5.404;2024-02-26T04:42:26;5.20;99.90
16785;DHT22;8509;52.178;5.404;2024-02-26T04:44:52;5.50;99.90
16785;DHT22;8509;52.178;5.404;2024-02-26T04:47:22;5.30;99.90
16785;DHT22;8509;52.178;5.404;2024-02-26T04:49:54;5.40;99.90
16785;DHT22;8509;52.178;5.404;2024-02-26T04:52:21;5.40;99.90
16785;DHT22;8509;52.178;5.404;2024-02-26T04:54:47;5.40;99.90
16785;DHT22;8509;52.178;5.404;2024-02-26T04:57:15;5.50;99.90
16785;DHT22;8509;52.178;5.404;2024-02-26T04:59:44;5.50;99.90
16785;DHT22;8509;52.178;5.404;2024-02-26T05:02:10;5.40;99.90
16785;DHT22;8509;52.178;5.404;2024-02-26T05:04:36;5.50;99.90
16785;DHT22;8509;52.178;5.404;2024-02-26T05:07:03;5.40;99.90
16785;DHT22;8509;52.178;5.404;2024-02-26T05:09:43;5.30;99.90
16785;DHT22;8509;52.178;5.404;2024-02-26T05:12:09;5.30;99.90
16785;DHT22;8509;52.178;5.404;2024-02-26T05:14:35;5.50;99.90
16785;DHT22;8509;52.178;5.404;2024-02-26T05:17:03;5.30;99.90
16785;DHT22;8509;52.178;5.404;2024-02-26T05:19:29;5.30;99.90
16785;DHT22;8509;52.178;5.404;2024-02-26T05:21:57;5.30;99.90
16785;DHT22;8509;52.178;5.404;2024-02-26T05:24:23;5.30;99.90
16785;DHT22;8509;52.178;5.404;2024-02-26T05:26:48;5.40;99.90
16785;DHT22;8509;52.178;5.404;2024-02-26T05:29:14;5.30;99.90
16785;DHT22;8509;52.178;5.404;2024-02-26T05:31:42;5.20;99.90
16785;DHT22;8509;52.178;5.404;2024-02-26T05:34:08;5.30;99.90
16785;DHT22;8509;52.178;5.404;2024-02-26T05:36:34;5.30;99.90
16785;DHT22;8509;52.178;5.404;2024-02-26T05:41:46;5.30;99.90
16785;DHT22;8509;52.178;5.404;2024-02-26T05:44:17;5.30;99.90
16785;DHT22;8509;52.178;5.404;2024-02-26T05:46:43;5.20;99.90
16785;DHT22;8509;52.178;5.404;2024-02-26T05:49:14;5.30;99.90
16785;DHT22;8509;52.178;5.404;2024-02-26T05:51:42;5.30;99.90
16785;DHT22;8509;52.178;5.404;2024-02-26T05:54:11;5.30;99.90
16785;DHT22;8509;52.178;5.404;2024-02-26T05:56:39;5.30;99.90
16785;DHT22;8509;52.178;5.404;2024-02-26T05:59:08;5.30;99.90
16785;DHT22;8509;52.178;5.404;2024-02-26T06:01:33;5.40;99.90
16785;DHT22;8509;52.178;5.404;2024-02-26T06:04:01;5.30;99.90
16785;DHT22;8509;52.178;5.404;2024-02-26T06:06:27;5.40;99.90
16785;DHT22;8509;52.178;5.404;2024-02-26T06:08:53;5.40;99.90
16785;DHT22;8509;52.178;5.404;2024-02-26T06:11:19;5.30;99.90
16785;DHT22;8509;52.178;5.404;2024-02-26T06:13:45;5.40;99.90
16785;DHT22;8509;52.178;5.404;2024-02-26T06:16:10;5.30;99.90
16785;DHT22;8509;52.178;5.404;2024-02-26T06:18:36;5.20;99.90
16785;DHT22;8509;52.178;5.404;2024-02-26T06:21:08;5.30;99.90
16785;DHT22;8509;52.178;5.404;2024-02-26T06:23:44;5.50;99.90
16785;DHT22;8509;52.178;5.404;2024-02-26T06:26:10;5.30;99.90
16785;DHT22;8509;52.178;5.404;2024-02-26T06:28:58;5.40;99.90
16785;DHT22;8509;52.178;5.404;2024-02-26T06:31:27;5.40;99.90
16785;DHT22;8509;52.178;5.404;2024-02-26T06:33:53;5.20;99.90
16785;DHT22;8509;52.178;5.404;2024-02-26T06:36:19;5.60;99.90
16785;DHT22;8509;52.178;5.404;2024-02-26T06:38:45;5.40;99.90
16785;DHT22;8509;52.178;5.404;2024-02-26T06:41:11;5.50;99.90
16785;DHT22;8509;52.178;5.404;2024-02-26T06:43:37;5.50;99.90
16785;DHT22;8509;52.178;5.404;2024-02-26T06:46:03;5.50;99.90
16785;DHT22;8509;52.178;5.404;2024-02-26T06:48:28;5.50;99.90
16785;DHT22;8509;52.178;5.404;2024-02-26T06:50:54;5.40;99.90
16785;DHT22;8509;52.178;5.404;2024-02-26T06:53:23;5.40;99.90
16785;DHT22;8509;52.178;5.404;2024-02-26T06:55:48;5.40;99.90
16785;DHT22;8509;52.178;5.404;2024-02-26T06:58:18;5.40;99.90
16785;DHT22;8509;52.178;5.404;2024-02-26T07:00:44;5.30;99.90
16785;DHT22;8509;52.178;5.404;2024-02-26T07:03:11;5.30;99.90
16785;DHT22;8509;52.178;5.404;2024-02-26T07:05:40;5.40;99.90
16785;DHT22;8509;52.178;5.404;2024-02-26T07:08:06;5.30;99.90
16785;DHT22;8509;52.178;5.404;2024-02-26T07:10:32;5.20;99.90
16785;DHT22;8509;52.178;5.404;2024-02-26T07:12:57;5.20;99.90
16785;DHT22;8509;52.178;5.404;2024-02-26T07:15:25;5.20;99.90
16785;DHT22;8509;52.178;5.404;2024-02-26T07:17:54;5.20;99.90
16785;DHT22;8509;52.178;5.404;2024-02-26T07:20:19;5.10;99.90
16785;DHT22;8509;52.178;5.404;2024-02-26T07:22:45;5.20;99.90
16785;DHT22;8509;52.178;5.404;2024-02-26T07:25:12;5.20;99.90
16785;DHT22;8509;52.178;5.404;2024-02-26T07:27:39;5.20;99.90
16785;DHT22;8509;52.178;5.404;2024-02-26T07:30:08;5.20;99.90
16785;DHT22;8509;52.178;5.404;2024-02-26T07:32:34;5.20;99.90
16785;DHT22;8509;52.178;5.404;2024-02-26T07:35:00;5.20;99.90
16785;DHT22;8509;52.178;5.404;2024-02-26T07:37:26;5.20;99.90
16785;DHT22;8509;52.178;5.404;2024-02-26T07:39:52;5.20;99.90
16785;DHT22;8509;52.178;5.404;2024-02-26T07:42:18;5.40;99.90
16785;DHT22;8509;52.178;5.404;2024-02-26T07:44:44;5.30;99.90
16785;DHT22;8509;52.178;5.404;2024-02-26T07:47:10;5.50;99.90
16785;DHT22;8509;52.178;5.404;2024-02-26T07:49:35;5.30;99.90
16785;DHT22;8509;52.178;5.404;2024-02-26T07:52:01;5.30;99.90
16785;DHT22;8509;52.178;5.404;2024-02-26T07:54:27;5.30;99.90
16785;DHT22;8509;52.178;5.404;2024-02-26T07:56:52;5.30;99.90
16785;DHT22;8509;52.178;5.404;2024-02-26T07:59:18;5.40;99.90
16785;DHT22;8509;52.178;5.404;2024-02-26T08:01:44;5.30;99.90
16785;DHT22;8509;52.178;5.404;2024-02-26T08:04:11;5.40;99.90
16785;DHT22;8509;52.178;5.404;2024-02-26T08:06:36;5.40;99.90
16785;DHT22;8509;52.178;5.404;2024-02-26T08:09:02;5.40;99.90
16785;DHT22;8509;52.178;5.404;2024-02-26T08:11:32;5.40;99.90
16785;DHT22;8509;52.178;5.404;2024-02-26T08:13:57;5.30;99.90
16785;DHT22;8509;52.178;5.404;2024-02-26T08:16:24;5.40;99.90
16785;DHT22;8509;52.178;5.404;2024-02-26T08:18:50;5.40;99.90
16785;DHT22;8509;52.178;5.404;2024-02-26T08:21:15;5.50;99.90
16785;DHT22;8509;52.178;5.404;2024-02-26T08:23:43;5.40;99.90
16785;DHT22;8509;52.178;5.404;2024-02-26T08:26:15;5.40;99.90
16785;DHT22;8509;52.178;5.404;2024-02-26T08:28:41;5.40;99.90
16785;DHT22;8509;52.178;5.404;2024-02-26T08:31:06;5.50;99.90
16785;DHT22;8509;52.178;5.404;2024-02-26T08:33:32;5.40;99.90
16785;DHT22;8509;52.178;5.404;2024-02-26T08:36:04;5.40;99.90
16785;DHT22;8509;52.178;5.404;2024-02-26T08:38:30;5.40;99.90
16785;DHT22;8509;52.178;5.404;2024-02-26T08:40:56;5.50;99.90
16785;DHT22;8509;52.178;5.404;2024-02-26T08:43:21;5.70;99.90
16785;DHT22;8509;52.178;5.404;2024-02-26T08:45:47;5.50;99.90
16785;DHT22;8509;52.178;5.404;2024-02-26T08:48:13;5.50;99.90
16785;DHT22;8509;52.178;5.404;2024-02-26T08:50:41;5.50;99.90
16785;DHT22;8509;52.178;5.404;2024-02-26T08:53:10;5.40;99.90
16785;DHT22;8509;52.178;5.404;2024-02-26T08:55:42;5.50;99.90
16785;DHT22;8509;52.178;5.404;2024-02-26T08:58:09;5.50;99.90
16785;DHT22;8509;52.178;5.404;2024-02-26T09:00:35;5.50;99.90
16785;DHT22;8509;52.178;5.404;2024-02-26T09:03:03;5.50;99.90
16785;DHT22;8509;52.178;5.404;2024-02-26T09:05:31;5.50;99.90
16785;DHT22;8509;52.178;5.404;2024-02-26T09:07:57;5.50;99.90
16785;DHT22;8509;52.178;5.404;2024-02-26T09:10:23;5.40;99.90
16785;DHT22;8509;52.178;5.404;2024-02-26T09:12:48;5.50;99.90
16785;DHT22;8509;52.178;5.404;2024-02-26T09:15:14;5.50;99.90
16785;DHT22;8509;52.178;5.404;2024-02-26T09:17:40;5.50;99.90
16785;DHT22;8509;52.178;5.404;2024-02-26T09:20:08;5.50;99.90
16785;DHT22;8509;52.178;5.404;2024-02-26T09:22:35;5.40;99.90
16785;DHT22;8509;52.178;5.404;2024-02-26T09:25:04;5.40;99.90
16785;DHT22;8509;52.178;5.404;2024-02-26T09:27:30;5.40;99.90
16785;DHT22;8509;52.178;5.404;2024-02-26T09:30:03;5.40;99.90
16785;DHT22;8509;52.178;5.404;2024-02-26T09:32:29;5.40;99.90
16785;DHT22;8509;52.178;5.404;2024-02-26T09:34:55;5.40;99.90
16785;DHT22;8509;52.178;5.404;2024-02-26T09:37:21;5.30;99.90
16785;DHT22;8509;52.178;5.404;2024-02-26T09:39:47;5.50;99.90
16785;DHT22;8509;52.178;5.404;2024-02-26T09:42:13;5.40;99.90
16785;DHT22;8509;52.178;5.404;2024-02-26T09:44:40;5.30;99.90
16785;DHT22;8509;52.178;5.404;2024-02-26T09:47:10;5.30;99.90
16785;DHT22;8509;52.178;5.404;2024-02-26T09:49:37;5.30;99.90
16785;DHT22;8509;52.178;5.404;2024-02-26T09:52:04;5.30;99.90
16785;DHT22;8509;52.178;5.404;2024-02-26T09:54:31;5.40;99.90
16785;DHT22;8509;52.178;5.404;2024-02-26T09:57:00;5.30;99.90
16785;DHT22;8509;52.178;5.404;2024-02-26T09:59:29;5.30;99.90
16785;DHT22;8509;52.178;5.404;2024-02-26T10:01:59;5.40;99.90
16785;DHT22;8509;52.178;5.404;2024-02-26T10:04:26;5.40;99.90
16785;DHT22;8509;52.178;5.404;2024-02-26T10:06:52;5.60;99.90
16785;DHT22;8509;52.178;5.404;2024-02-26T10:09:18;5.50;99.90
16785;DHT22;8509;52.178;5.404;2024-02-26T10:11:45;5.60;99.90
16785;DHT22;8509;52.178;5.404;2024-02-26T10:14:11;5.70;99.90
16785;DHT22;8509;52.178;5.404;2024-02-26T10:16:37;5.60;99.90
16785;DHT22;8509;52.178;5.404;2024-02-26T10:19:03;5.70;99.90
16785;DHT22;8509;52.178;5.404;2024-02-26T10:21:29;5.60;99.90
16785;DHT22;8509;52.178;5.404;2024-02-26T10:23:55;5.60;99.90
16785;DHT22;8509;52.178;5.404;2024-02-26T10:26:20;5.50;99.90
16785;DHT22;8509;52.178;5.404;2024-02-26T10:28:47;5.60;99.90
16785;DHT22;8509;52.178;5.404;2024-02-26T10:31:14;5.70;99.90
16785;DHT22;8509;52.178;5.404;2024-02-26T10:33:41;5.60;99.90
16785;DHT22;8509;52.178;5.404;2024-02-26T10:36:08;5.80;99.90
16785;DHT22;8509;52.178;5.404;2024-02-26T10:38:35;5.70;99.90
16785;DHT22;8509;52.178;5.404;2024-02-26T10:41:03;5.70;99.90
16785;DHT22;8509;52.178;5.404;2024-02-26T10:43:29;5.80;99.90
16785;DHT22;8509;52.178;5.404;2024-02-26T10:45:55;5.80;99.90
16785;DHT22;8509;52.178;5.404;2024-02-26T10:48:21;5.90;99.90
16785;DHT22;8509;52.178;5.404;2024-02-26T10:50:49;5.70;99.90
16785;DHT22;8509;52.178;5.404;2024-02-26T10:53:28;5.80;99.90
16785;DHT22;8509;52.178;5.404;2024-02-26T10:55:59;5.80;99.90
16785;DHT22;8509;52.178;5.404;2024-02-26T10:58:26;5.90;99.90
16785;DHT22;8509;52.178;5.404;2024-02-26T11:00:52;6.00;99.90
16785;DHT22;8509;52.178;5.404;2024-02-26T11:03:19;5.80;99.90
16785;DHT22;8509;52.178;5.404;2024-02-26T11:05:49;5.80;99.90
16785;DHT22;8509;52.178;5.404;2024-02-26T11:08:19;6.00;99.90
16785;DHT22;8509;52.178;5.404;2024-02-26T11:10:48;5.80;99.90
16785;DHT22;8509;52.178;5.404;2024-02-26T11:13:18;5.90;99.90
16785;DHT22;8509;52.178;5.404;2024-02-26T11:15:46;5.90;99.90
16785;DHT22;8509;52.178;5.404;2024-02-26T11:18:15;6.00;99.90
16785;DHT22;8509;52.178;5.404;2024-02-26T11:20:44;5.90;99.90
16785;DHT22;8509;52.178;5.404;2024-02-26T11:23:11;6.10;99.90
16785;DHT22;8509;52.178;5.404;2024-02-26T11:25:37;5.90;99.90
16785;DHT22;8509;52.178;5.404;2024-02-26T11:28:07;5.90;99.90
16785;DHT22;8509;52.178;5.404;2024-02-26T11:30:38;5.90;99.90
16785;DHT22;8509;52.178;5.404;2024-02-26T11:33:09;6.00;99.90
16785;DHT22;8509;52.178;5.404;2024-02-26T11:35:36;6.00;99.90
16785;DHT22;8509;52.178;5.404;2024-02-26T11:38:02;6.00;99.90
16785;DHT22;8509;52.178;5.404;2024-02-26T11:40:29;6.00;99.90
16785;DHT22;8509;52.178;5.404;2024-02-26T11:42:56;6.00;99.90
16785;DHT22;8509;52.178;5.404;2024-02-26T11:48:24;5.90;99.90
16785;DHT22;8509;52.178;5.404;2024-02-26T11:50:52;6.00;99.90
16785;DHT22;8509;52.178;5.404;2024-02-26T11:53:28;5.90;99.90
16785;DHT22;8509;52.178;5.404;2024-02-26T11:56:23;5.90;99.90
16785;DHT22;8509;52.178;5.404;2024-02-26T11:59:09;6.00;99.90
16785;DHT22;8509;52.178;5.404;2024-02-26T12:01:46;5.90;99.90
16785;DHT22;8509;52.178;5.404;2024-02-26T12:04:24;5.90;99.90
16785;DHT22;8509;52.178;5.404;2024-02-26T12:07:11;5.90;99.90
16785;DHT22;8509;52.178;5.404;2024-02-26T12:10:22;5.90;99.90
16785;DHT22;8509;52.178;5.404;2024-02-26T12:12:58;5.90;99.90
16785;DHT22;8509;52.178;5.404;2024-02-26T12:15:24;5.90;99.90
16785;DHT22;8509;52.178;5.404;2024-02-26T12:17:52;6.00;99.90
16785;DHT22;8509;52.178;5.404;2024-02-26T12:20:18;6.20;99.90
16785;DHT22;8509;52.178;5.404;2024-02-26T12:22:46;6.10;99.90
16785;DHT22;8509;52.178;5.404;2024-02-26T12:25:15;6.10;99.90
16785;DHT22;8509;52.178;5.404;2024-02-26T12:27:41;6.10;99.90
16785;DHT22;8509;52.178;5.404;2024-02-26T12:30:07;6.20;99.90
16785;DHT22;8509;52.178;5.404;2024-02-26T12:32:34;6.10;99.90
16785;DHT22;8509;52.178;5.404;2024-02-26T12:35:00;6.10;99.90
16785;DHT22;8509;52.178;5.404;2024-02-26T12:37:27;6.10;99.90
16785;DHT22;8509;52.178;5.404;2024-02-26T12:39:53;6.10;99.90
16785;DHT22;8509;52.178;5.404;2024-02-26T12:42:19;6.30;99.90
16785;DHT22;8509;52.178;5.404;2024-02-26T12:44:52;6.30;99.90
16785;DHT22;8509;52.178;5.404;2024-02-26T12:47:18;6.40;99.90
16785;DHT22;8509;52.178;5.404;2024-02-26T12:49:47;6.20;99.90
16785;DHT22;8509;52.178;5.404;2024-02-26T12:52:13;6.30;99.90
16785;DHT22;8509;52.178;5.404;2024-02-26T12:54:39;6.40;99.90
16785;DHT22;8509;52.178;5.404;2024-02-26T12:57:06;6.40;99.90
16785;DHT22;8509;52.178;5.404;2024-02-26T12:59:34;6.40;99.90
16785;DHT22;8509;52.178;5.404;2024-02-26T13:02:02;6.30;99.90
16785;DHT22;8509;52.178;5.404;2024-02-26T13:04:29;6.40;99.90
16785;DHT22;8509;52.178;5.404;2024-02-26T13:06:56;6.50;99.90
16785;DHT22;8509;52.178;5.404;2024-02-26T13:09:27;6.70;99.90
16785;DHT22;8509;52.178;5.404;2024-02-26T13:11:56;6.60;99.90
16785;DHT22;8509;52.178;5.404;2024-02-26T13:14:21;6.70;99.90
16785;DHT22;8509;52.178;5.404;2024-02-26T13:16:57;6.70;99.90
16785;DHT22;8509;52.178;5.404;2024-02-26T13:19:23;6.70;99.90
16785;DHT22;8509;52.178;5.404;2024-02-26T13:21:49;6.60;99.90
16785;DHT22;8509;52.178;5.404;2024-02-26T13:24:15;6.50;99.90
16785;DHT22;8509;52.178;5.404;2024-02-26T13:26:41;6.50;99.90
16785;DHT22;8509;52.178;5.404;2024-02-26T13:29:06;6.60;99.90
16785;DHT22;8509;52.178;5.404;2024-02-26T13:31:39;6.60;99.90
16785;DHT22;8509;52.178;5.404;2024-02-26T13:34:07;6.60;99.90
16785;DHT22;8509;52.178;5.404;2024-02-26T13:36:33;6.60;99.90
16785;DHT22;8509;52.178;5.404;2024-02-26T13:38:59;6.70;99.90
16785;DHT22;8509;52.178;5.404;2024-02-26T13:41:25;6.70;99.90
16785;DHT22;8509;52.178;5.404;2024-02-26T13:43:51;6.60;99.90
16785;DHT22;8509;52.178;5.404;2024-02-26T13:46:17;6.70;99.90
16785;DHT22;8509;52.178;5.404;2024-02-26T13:48:43;6.80;99.90
16785;DHT22;8509;52.178;5.404;2024-02-26T13:51:09;6.80;99.90
16785;DHT22;8509;52.178;5.404;2024-02-26T13:53:35;6.90;99.90
16785;DHT22;8509;52.178;5.404;2024-02-26T13:56:00;6.90;99.90
16785;DHT22;8509;52.178;5.404;2024-02-26T13:58:27;7.10;99.90
16785;DHT22;8509;52.178;5.404;2024-02-26T14:00:56;7.10;99.90
16785;DHT22;8509;52.178;5.404;2024-02-26T14:03:22;7.00;99.90
16785;DHT22;8509;52.178;5.404;2024-02-26T14:05:47;7.00;99.90
16785;DHT22;8509;52.178;5.404;2024-02-26T14:08:16;7.10;99.90
16785;DHT22;8509;52.178;5.404;2024-02-26T14:10:42;7.10;99.90
16785;DHT22;8509;52.178;5.404;2024-02-26T14:13:08;7.10;99.90
16785;DHT22;8509;52.178;5.404;2024-02-26T14:15:34;7.20;99.90
16785;DHT22;8509;52.178;5.404;2024-02-26T14:18:01;7.00;99.90
16785;DHT22;8509;52.178;5.404;2024-02-26T14:20:28;7.00;99.90
16785;DHT22;8509;52.178;5.404;2024-02-26T14:22:54;6.90;99.90
16785;DHT22;8509;52.178;5.404;2024-02-26T14:25:20;6.90;99.90
16785;DHT22;8509;52.178;5.404;2024-02-26T14:27:47;6.90;99.90
16785;DHT22;8509;52.178;5.404;2024-02-26T14:30:13;7.10;99.90
16785;DHT22;8509;52.178;5.404;2024-02-26T14:32:39;7.10;99.90
16785;DHT22;8509;52.178;5.404;2024-02-26T14:35:08;7.00;99.90
16785;DHT22;8509;52.178;5.404;2024-02-26T14:37:35;7.00;99.90
16785;DHT22;8509;52.178;5.404;2024-02-26T14:40:01;7.10;99.90
16785;DHT22;8509;52.178;5.404;2024-02-26T14:42:31;7.20;99.90
16785;DHT22;8509;52.178;5.404;2024-02-26T14:44:56;7.20;99.90
16785;DHT22;8509;52.178;5.404;2024-02-26T14:47:22;7.00;99.90
16785;DHT22;8509;52.178;5.404;2024-02-26T14:49:48;7.10;99.90
16785;DHT22;8509;52.178;5.404;2024-02-26T14:52:17;7.00;99.90
16785;DHT22;8509;52.178;5.404;2024-02-26T14:54:43;7.20;99.90
16785;DHT22;8509;52.178;5.404;2024-02-26T14:57:08;7.10;99.90
16785;DHT22;8509;52.178;5.404;2024-02-26T14:59:34;7.20;99.90
16785;DHT22;8509;52.178;5.404;2024-02-26T15:02:02;7.10;99.90
16785;DHT22;8509;52.178;5.404;2024-02-26T15:04:28;7.20;99.90
16785;DHT22;8509;52.178;5.404;2024-02-26T15:06:54;7.10;99.90
16785;DHT22;8509;52.178;5.404;2024-02-26T15:09:19;7.00;99.90
16785;DHT22;8509;52.178;5.404;2024-02-26T15:11:46;7.00;99.90
16785;DHT22;8509;52.178;5.404;2024-02-26T15:14:12;7.00;99.90
16785;DHT22;8509;52.178;5.404;2024-02-26T15:16:37;7.00;99.90
16785;DHT22;8509;52.178;5.404;2024-02-26T15:19:03;7.10;99.90
16785;DHT22;8509;52.178;5.404;2024-02-26T15:21:29;7.00;99.90
16785;DHT22;8509;52.178;5.404;2024-02-26T15:23:55;7.10;99.90
16785;DHT22;8509;52.178;5.404;2024-02-26T15:26:21;7.10;99.90
16785;DHT22;8509;52.178;5.404;2024-02-26T15:28:47;7.10;99.90
16785;DHT22;8509;52.178;5.404;2024-02-26T15:31:15;7.20;99.90
16785;DHT22;8509;52.178;5.404;2024-02-26T15:33:41;7.00;99.90
16785;DHT22;8509;52.178;5.404;2024-02-26T15:36:08;7.10;99.90
16785;DHT22;8509;52.178;5.404;2024-02-26T15:38:38;7.10;99.90
16785;DHT22;8509;52.178;5.404;2024-02-26T15:41:12;7.10;99.90
16785;DHT22;8509;52.178;5.404;2024-02-26T15:43:38;7.00;99.90
16785;DHT22;8509;52.178;5.404;2024-02-26T15:46:04;7.00;99.90
16785;DHT22;8509;52.178;5.404;2024-02-26T15:48:31;7.00;99.90
16785;DHT22;8509;52.178;5.404;2024-02-26T15:50:57;7.00;99.90
16785;DHT22;8509;52.178;5.404;2024-02-26T15:53:22;7.00;99.90
16785;DHT22;8509;52.178;5.404;2024-02-26T15:55:48;6.90;99.90
16785;DHT22;8509;52.178;5.404;2024-02-26T15:58:14;7.00;99.90
16785;DHT22;8509;52.178;5.404;2024-02-26T16:00:43;6.90;99.90
16785;DHT22;8509;52.178;5.404;2024-02-26T16:03:10;6.90;99.90
16785;DHT22;8509;52.178;5.404;2024-02-26T16:05:37;6.80;99.90
16785;DHT22;8509;52.178;5.404;2024-02-26T16:08:17;6.80;99.90
16785;DHT22;8509;52.178;5.404;2024-02-26T16:10:49;6.90;99.90
16785;DHT22;8509;52.178;5.404;2024-02-26T16:13:15;6.70;99.90
16785;DHT22;8509;52.178;5.404;2024-02-26T16:15:44;6.70;99.90